createdAt,value
2018-02-08T00:01:14.394Z,80.41
2018-02-08T00:03:41.946Z,79.84
2018-02-08T00:06:09.545Z,80.43
2018-02-08T00:08:37.091Z,81.04
2018-02-08T00:11:04.620Z,80.82
2018-02-08T00:13:32.141Z,80.97
2018-02-08T00:15:59.698Z,81.35
2018-02-08T00:18:27.494Z,81.85
2018-02-08T00:20:55.204Z,82.48
2018-02-08T00:23:22.734Z,81.88
2018-02-08T00:25:50.267Z,81.53
2018-02-08T00:28:18.891Z,81.76
2018-02-08T00:30:46.542Z,81.98
2018-02-08T00:33:14.064Z,81.90
2018-02-08T00:35:41.743Z,81.79
2018-02-08T00:38:09.334Z,82.61
2018-02-08T00:40:36.954Z,82.48
2018-02-08T00:43:04.538Z,83.84
2018-02-08T00:45:32.077Z,84.47
2018-02-08T00:47:59.619Z,84.60
2018-02-08T00:50:27.150Z,85.06
2018-02-08T00:52:54.660Z,85.37
2018-02-08T00:55:22.175Z,85.74
2018-02-08T00:57:49.737Z,85.58
2018-02-08T01:00:17.321Z,85.20
2018-02-08T01:02:44.931Z,84.73
2018-02-08T01:05:12.508Z,84.33
2018-02-08T01:07:40.026Z,83.48
2018-02-08T01:10:07.549Z,83.50
2018-02-08T01:12:35.076Z,83.98
2018-02-08T01:15:02.591Z,84.49
2018-02-08T01:17:30.119Z,84.87
2018-02-08T01:19:57.656Z,85.09
2018-02-08T01:22:25.164Z,85.57
2018-02-08T01:24:52.683Z,85.48
2018-02-08T01:27:20.301Z,85.76
2018-02-08T01:29:47.891Z,86.08
2018-02-08T01:32:15.493Z,86.36
2018-02-08T01:34:43.009Z,86.73
2018-02-08T01:37:10.634Z,86.10
2018-02-08T01:39:39.088Z,86.85
2018-02-08T01:42:06.645Z,87.29
2018-02-08T01:44:34.250Z,87.28
2018-02-08T01:47:01.839Z,87.19
2018-02-08T01:49:41.275Z,87.03
2018-02-08T01:52:08.804Z,87.10
2018-02-08T01:54:36.387Z,87.34
2018-02-08T01:57:03.959Z,87.65
2018-02-08T01:59:31.484Z,87.44
2018-02-08T02:01:59.008Z,87.41
2018-02-08T02:04:26.544Z,87.24
2018-02-08T02:06:54.094Z,87.10
2018-02-08T02:09:21.684Z,86.48
2018-02-08T02:11:49.214Z,86.87
2018-02-08T02:14:16.760Z,87.06
2018-02-08T02:16:44.284Z,87.22
2018-02-08T02:19:11.798Z,87.28
2018-02-08T02:21:39.395Z,87.37
2018-02-08T02:24:06.962Z,87.53
2018-02-08T02:26:34.556Z,87.03
2018-02-08T02:29:02.134Z,87.28
2018-02-08T02:31:29.718Z,87.72
2018-02-08T02:33:57.301Z,88.08
2018-02-08T02:36:24.836Z,88.13
2018-02-08T02:38:52.369Z,88.33
2018-02-08T02:41:19.960Z,88.43
2018-02-08T02:43:47.615Z,88.88
2018-02-08T02:46:15.181Z,89.53
2018-02-08T02:48:42.760Z,89.17
2018-02-08T02:51:10.308Z,89.03
2018-02-08T02:53:37.949Z,88.56
2018-02-08T02:56:05.485Z,88.37
2018-02-08T02:58:34.049Z,88.23
2018-02-08T03:01:01.596Z,88.67
2018-02-08T03:03:29.214Z,88.74
2018-02-08T03:05:57.573Z,88.94
2018-02-08T03:08:25.094Z,89.07
2018-02-08T03:10:52.636Z,89.00
2018-02-08T03:13:20.151Z,88.87
2018-02-08T03:15:48.086Z,88.72
2018-02-08T03:18:15.618Z,88.78
2018-02-08T03:20:43.148Z,88.59
2018-02-08T03:23:10.759Z,88.74
2018-02-08T03:25:38.695Z,88.75
2018-02-08T03:28:06.235Z,88.79
2018-02-08T03:30:33.775Z,89.04
2018-02-08T03:33:01.294Z,89.15
2018-02-08T03:35:29.005Z,89.97
2018-02-08T03:37:56.565Z,89.73
2018-02-08T03:40:24.118Z,89.39
2018-02-08T03:42:51.666Z,89.29
2018-02-08T03:45:19.284Z,89.24
2018-02-08T03:47:46.800Z,88.59
2018-02-08T03:50:14.320Z,88.28
2018-02-08T03:52:41.953Z,88.19
2018-02-08T03:55:09.474Z,88.13
2018-02-08T03:57:37.025Z,88.51
2018-02-08T04:00:04.549Z,88.77
2018-02-08T04:02:32.134Z,88.09
2018-02-08T04:04:59.685Z,88.28
2018-02-08T04:07:27.241Z,88.68
2018-02-08T04:09:54.815Z,90.19
2018-02-08T04:12:22.574Z,90.55
2018-02-08T04:14:50.126Z,90.46
2018-02-08T04:17:17.738Z,90.03
2018-02-08T04:19:45.336Z,89.47
2018-02-08T04:22:12.859Z,88.81
2018-02-08T04:24:40.420Z,88.49
2018-02-08T04:27:07.939Z,88.69
2018-02-08T04:29:35.526Z,88.72
2018-02-08T04:32:03.050Z,88.48
2018-02-08T04:34:30.650Z,88.57
2018-02-08T04:36:58.198Z,89.02
2018-02-08T04:39:37.632Z,89.96
2018-02-08T04:42:17.010Z,90.33
2018-02-08T04:44:56.411Z,90.88
2018-02-08T04:47:27.918Z,91.51
2018-02-08T04:49:55.499Z,91.97
2018-02-08T04:52:23.081Z,91.80
2018-02-08T04:54:50.689Z,91.60
2018-02-08T04:57:18.212Z,91.49
2018-02-08T04:59:45.844Z,90.97
2018-02-08T05:02:14.216Z,90.46
2018-02-08T05:04:41.850Z,90.02
2018-02-08T05:07:09.454Z,89.60
2018-02-08T05:09:37.039Z,89.27
2018-02-08T05:12:04.577Z,89.21
2018-02-08T05:14:32.124Z,89.21
2018-02-08T05:16:59.637Z,90.36
2018-02-08T05:19:27.161Z,90.42
2018-02-08T05:21:54.800Z,89.91
2018-02-08T05:24:22.351Z,89.47
2018-02-08T05:26:49.900Z,88.87
2018-02-08T05:29:17.449Z,88.91
2018-02-08T05:31:44.965Z,89.16
2018-02-08T05:34:12.536Z,89.33
2018-02-08T05:36:40.085Z,89.01
2018-02-08T05:39:07.656Z,88.75
2018-02-08T05:41:35.170Z,88.83
2018-02-08T05:44:02.720Z,89.85
2018-02-08T05:46:30.255Z,90.11
2018-02-08T05:48:57.855Z,90.69
2018-02-08T05:51:31.671Z,90.98
2018-02-08T05:53:59.236Z,91.42
2018-02-08T05:56:26.885Z,91.82
2018-02-08T05:58:54.422Z,92.13
2018-02-08T06:01:21.945Z,92.63
2018-02-08T06:03:49.509Z,93.05
2018-02-08T06:06:17.191Z,93.07
2018-02-08T06:08:44.765Z,93.06
2018-02-08T06:11:15.781Z,93.03
2018-02-08T06:13:43.408Z,94.39
2018-02-08T06:16:11.001Z,94.57
2018-02-08T06:18:38.526Z,94.38
2018-02-08T06:21:06.099Z,94.06
2018-02-08T06:23:33.639Z,93.49
2018-02-08T06:26:01.240Z,93.82
2018-02-08T06:28:28.767Z,93.69
2018-02-08T06:30:56.541Z,94.08
2018-02-08T06:33:24.056Z,94.13
2018-02-08T06:35:56.401Z,93.85
2018-02-08T06:38:23.961Z,93.76
2018-02-08T06:40:51.489Z,93.72
2018-02-08T06:43:19.045Z,93.93
2018-02-08T06:45:47.746Z,93.63
2018-02-08T06:48:15.364Z,93.30
2018-02-08T06:50:42.910Z,92.79
2018-02-08T06:53:10.469Z,91.79
2018-02-08T06:55:37.993Z,92.15
2018-02-08T06:58:05.761Z,91.99
2018-02-08T07:00:33.269Z,92.04
2018-02-08T07:03:00.825Z,91.86
2018-02-08T07:05:28.438Z,92.44
2018-02-08T07:07:56.164Z,92.06
2018-02-08T07:10:23.704Z,92.25
2018-02-08T07:12:51.237Z,91.91
2018-02-08T07:15:19.305Z,91.62
2018-02-08T07:17:47.006Z,92.38
2018-02-08T07:20:14.536Z,92.07
2018-02-08T07:22:42.114Z,91.54
2018-02-08T07:25:09.665Z,92.21
2018-02-08T07:27:37.401Z,92.56
2018-02-08T07:30:05.066Z,92.13
2018-02-08T07:32:32.671Z,90.94
2018-02-08T07:35:00.196Z,89.43
2018-02-08T07:37:27.730Z,90.24
2018-02-08T07:39:55.261Z,90.98
2018-02-08T07:42:22.815Z,90.28
2018-02-08T07:44:50.345Z,88.86
2018-02-08T07:47:17.924Z,86.75
2018-02-08T07:49:45.521Z,86.24
2018-02-08T07:52:13.125Z,84.98
2018-02-08T07:54:40.678Z,85.54
2018-02-08T07:57:08.192Z,86.09
2018-02-08T07:59:35.735Z,85.73
2018-02-08T08:02:03.254Z,85.73
2018-02-08T08:04:30.809Z,84.14
2018-02-08T08:06:58.356Z,84.45
2018-02-08T08:09:25.995Z,84.24
2018-02-08T08:11:53.730Z,83.57
2018-02-08T08:14:21.259Z,83.62
2018-02-08T08:16:48.914Z,83.43
2018-02-08T08:19:16.424Z,82.91
2018-02-08T08:21:43.961Z,82.77
2018-02-08T08:24:11.706Z,82.14
2018-02-08T08:26:39.449Z,81.04
2018-02-08T08:29:07.164Z,80.41
2018-02-08T08:31:34.787Z,80.21
2018-02-08T08:34:02.501Z,79.34
2018-02-08T08:36:30.064Z,80.66
2018-02-08T08:38:58.057Z,79.87
2018-02-08T08:41:25.600Z,81.35
2018-02-08T08:43:53.139Z,78.71
2018-02-08T08:46:20.717Z,79.12
2018-02-08T08:48:48.250Z,78.96
2018-02-08T08:51:15.856Z,79.24
2018-02-08T08:53:43.361Z,78.90
2018-02-08T08:56:10.900Z,78.24
2018-02-08T08:58:38.520Z,77.40
2018-02-08T09:01:06.031Z,78.33
2018-02-08T09:03:33.689Z,77.44
2018-02-08T09:06:01.222Z,78.19
2018-02-08T09:08:28.992Z,77.19
2018-02-08T09:10:56.519Z,76.78
2018-02-08T09:13:24.066Z,77.12
2018-02-08T09:15:51.576Z,76.94
2018-02-08T09:18:19.100Z,76.44
2018-02-08T09:20:46.691Z,77.32
2018-02-08T09:23:14.216Z,75.38
2018-02-08T09:25:41.799Z,77.84
2018-02-08T09:28:09.311Z,78.69
2018-02-08T09:30:36.896Z,76.81
2018-02-08T09:33:04.420Z,77.20
2018-02-08T09:35:31.990Z,77.46
2018-02-08T09:37:59.670Z,74.47
2018-02-08T09:40:27.186Z,75.54
2018-02-08T09:42:54.794Z,75.61
2018-02-08T09:45:22.341Z,75.87
2018-02-08T09:47:50.435Z,75.92
2018-02-08T09:50:17.966Z,75.67
2018-02-08T09:52:45.713Z,75.69
2018-02-08T09:55:13.239Z,75.32
2018-02-08T09:57:40.756Z,74.79
2018-02-08T10:00:08.306Z,73.62
2018-02-08T10:02:35.880Z,74.30
2018-02-08T10:05:03.425Z,74.43
2018-02-08T10:07:31.179Z,78.33
2018-02-08T10:09:58.862Z,77.18
2018-02-08T10:12:26.461Z,75.90
2018-02-08T10:14:54.001Z,72.61
2018-02-08T10:17:21.514Z,73.39
2018-02-08T10:19:49.105Z,71.85
2018-02-08T10:22:16.646Z,70.80
2018-02-08T10:24:44.351Z,74.57
2018-02-08T10:27:11.870Z,72.62
2018-02-08T10:29:39.582Z,71.11
2018-02-08T10:32:07.181Z,70.02
2018-02-08T10:34:34.691Z,71.07
2018-02-08T10:37:02.261Z,73.13
2018-02-08T10:39:29.783Z,72.38
2018-02-08T10:41:57.325Z,72.59
2018-02-08T10:44:24.925Z,72.35
2018-02-08T10:46:52.466Z,72.99
2018-02-08T10:49:20.009Z,74.86
2018-02-08T10:51:47.604Z,73.43
2018-02-08T10:54:15.136Z,72.72
2018-02-08T10:56:42.670Z,73.07
2018-02-08T10:59:10.430Z,74.03
2018-02-08T11:01:37.989Z,74.88
2018-02-08T11:04:05.653Z,74.79
2018-02-08T11:06:33.190Z,73.37
2018-02-08T11:09:00.740Z,71.73
2018-02-08T11:11:28.263Z,72.91
2018-02-08T11:13:55.799Z,76.24
2018-02-08T11:16:23.325Z,76.27
2018-02-08T11:18:50.866Z,77.71
2018-02-08T11:21:18.601Z,75.24
2018-02-08T11:23:46.370Z,74.68
2018-02-08T11:26:13.889Z,73.01
2018-02-08T11:28:41.434Z,73.23
2018-02-08T11:31:09.059Z,73.65
2018-02-08T11:33:36.655Z,74.00
2018-02-08T11:36:04.345Z,73.08
2018-02-08T11:38:31.876Z,75.35
2018-02-08T11:41:07.651Z,75.53
2018-02-08T11:43:35.416Z,72.31
2018-02-08T11:46:03.081Z,74.58
2018-02-08T11:48:30.626Z,76.89
2018-02-08T11:50:58.229Z,73.63
2018-02-08T11:53:25.808Z,73.16
2018-02-08T11:55:53.451Z,70.85
2018-02-08T11:58:21.046Z,71.75
2018-02-08T12:00:49.429Z,71.58
2018-02-08T12:03:16.981Z,68.37
2018-02-08T12:05:44.630Z,67.23
2018-02-08T12:08:12.204Z,70.98
2018-02-08T12:10:39.714Z,71.71
2018-02-08T12:13:07.239Z,72.08
2018-02-08T12:15:34.816Z,68.75
2018-02-08T12:18:02.350Z,70.76
2018-02-08T12:20:29.971Z,71.47
2018-02-08T12:22:57.617Z,73.58
2018-02-08T12:25:25.177Z,71.06
2018-02-08T12:27:52.714Z,69.99
2018-02-08T12:30:20.324Z,70.27
2018-02-08T12:32:47.860Z,69.02
2018-02-08T12:35:15.550Z,68.66
2018-02-08T12:37:43.190Z,69.86
2018-02-08T12:40:10.713Z,71.59
2018-02-08T12:42:38.320Z,67.39
2018-02-08T12:45:06.045Z,68.87
2018-02-08T12:47:33.565Z,70.26
2018-02-08T12:50:01.125Z,68.06
2018-02-08T12:52:28.790Z,65.25
2018-02-08T12:54:56.338Z,63.82
2018-02-08T12:57:23.874Z,64.74
2018-02-08T12:59:51.433Z,62.86
2018-02-08T13:02:19.054Z,65.37
2018-02-08T13:04:46.821Z,65.34
2018-02-08T13:07:14.521Z,63.82
2018-02-08T13:09:42.929Z,65.64
2018-02-08T13:12:10.504Z,66.88
2018-02-08T13:14:38.046Z,66.52
2018-02-08T13:17:05.565Z,63.95
2018-02-08T13:19:33.090Z,59.15
2018-02-08T13:22:00.705Z,57.63
2018-02-08T13:24:28.301Z,55.37
2018-02-08T13:26:55.850Z,56.20
2018-02-08T13:29:23.476Z,56.55
2018-02-08T13:31:55.768Z,57.29
2018-02-08T13:34:23.291Z,57.89
2018-02-08T13:36:50.901Z,56.94
2018-02-08T13:39:29.290Z,56.72
2018-02-08T13:41:57.195Z,57.09
2018-02-08T13:44:24.795Z,56.47
2018-02-08T13:46:52.360Z,58.12
2018-02-08T13:49:24.854Z,62.80
2018-02-08T13:54:59.224Z,60.87
2018-02-08T13:57:32.342Z,59.96
2018-02-08T14:00:03.303Z,62.41
2018-02-08T14:02:30.839Z,61.23
2018-02-08T14:04:58.454Z,63.37
2018-02-08T14:07:26.026Z,63.56
2018-02-08T14:09:53.550Z,57.57
2018-02-08T14:12:21.096Z,52.45
2018-02-08T14:14:48.774Z,48.13
2018-02-08T14:17:16.329Z,46.41
2018-02-08T14:19:43.919Z,46.18
2018-02-08T14:22:11.512Z,52.62
2018-02-08T14:24:39.219Z,58.30
2018-02-08T14:27:06.841Z,57.54
2018-02-08T14:29:34.396Z,60.21
2018-02-08T14:32:02.013Z,64.53
2018-02-08T14:34:30.389Z,65.93
2018-02-08T14:36:57.936Z,65.73
2018-02-08T14:39:25.476Z,67.15
2018-02-08T14:41:53.044Z,65.08
2018-02-08T14:44:20.590Z,65.16
2018-02-08T14:46:48.137Z,65.38
2018-02-08T14:49:15.697Z,65.50
2018-02-08T14:51:43.230Z,67.02
2018-02-08T14:54:10.816Z,66.30
2018-02-08T14:56:38.437Z,66.91
2018-02-08T14:59:06.009Z,66.42
2018-02-08T15:01:33.715Z,68.10
2018-02-08T15:04:01.260Z,66.48
2018-02-08T15:06:28.966Z,66.93
2018-02-08T15:08:56.635Z,68.16
2018-02-08T15:11:24.576Z,69.00
2018-02-08T15:13:52.302Z,68.02
2018-02-08T15:16:20.009Z,70.66
2018-02-08T15:18:47.622Z,71.75
2018-02-08T15:21:15.192Z,71.34
2018-02-08T15:23:42.802Z,70.57
2018-02-08T15:26:10.459Z,70.27
2018-02-08T15:28:37.985Z,70.52
2018-02-08T15:31:05.631Z,70.17
2018-02-08T15:33:33.225Z,70.04
2018-02-08T15:36:00.751Z,70.28
2018-02-08T15:38:28.270Z,72.03
2018-02-08T15:40:55.821Z,71.62
2018-02-08T15:43:23.350Z,71.69
2018-02-08T15:45:50.880Z,72.46
2018-02-08T15:48:18.496Z,72.52
2018-02-08T15:50:46.112Z,72.79
2018-02-08T15:53:13.705Z,72.68
2018-02-08T15:55:41.252Z,72.91
2018-02-08T15:58:08.922Z,71.90
2018-02-08T16:00:36.556Z,73.50
2018-02-08T16:03:04.211Z,73.61
2018-02-08T16:05:31.811Z,73.84
2018-02-08T16:07:59.401Z,72.82
2018-02-08T16:10:26.930Z,74.11
2018-02-08T16:12:54.461Z,73.71
2018-02-08T16:15:22.035Z,74.62
2018-02-08T16:17:49.596Z,74.94
2018-02-08T16:20:17.151Z,74.40
2018-02-08T16:22:44.766Z,76.00
2018-02-08T16:25:12.335Z,76.50
2018-02-08T16:27:39.957Z,76.54
2018-02-08T16:30:07.515Z,77.48
2018-02-08T16:32:35.120Z,77.83
2018-02-08T16:38:56.829Z,78.64
2018-02-08T16:41:24.407Z,79.36
2018-02-08T16:43:52.027Z,80.20
2018-02-08T16:46:19.605Z,81.04
2018-02-08T16:48:47.125Z,81.50
2018-02-08T16:51:14.651Z,81.75
2018-02-08T16:53:42.241Z,82.10
2018-02-08T16:56:09.945Z,82.38
2018-02-08T16:58:37.477Z,82.64
2018-02-08T17:01:05.167Z,82.32
2018-02-08T17:03:32.870Z,81.90
2018-02-08T17:06:00.426Z,82.30
2018-02-08T17:08:28.078Z,82.71
2018-02-08T17:10:55.661Z,82.73
2018-02-08T17:13:23.590Z,82.93
2018-02-08T17:15:51.169Z,82.75
2018-02-08T17:18:18.680Z,83.34
2018-02-08T17:20:46.316Z,84.14
2018-02-08T17:23:13.854Z,84.30
2018-02-08T17:25:41.460Z,83.70
2018-02-08T17:28:08.991Z,84.12
2018-02-08T17:30:36.542Z,83.97
2018-02-08T17:33:04.180Z,84.41
2018-02-08T17:35:31.822Z,85.08
2018-02-08T17:37:59.353Z,85.08
2018-02-08T17:40:26.895Z,84.84
2018-02-08T17:42:54.530Z,83.87
2018-02-08T17:45:22.141Z,84.29
2018-02-08T17:47:49.670Z,84.92
2018-02-08T17:50:17.219Z,86.67
2018-02-08T17:52:44.764Z,87.10
2018-02-08T17:55:12.289Z,86.76
2018-02-08T17:57:39.968Z,86.77
2018-02-08T18:00:07.682Z,86.45
2018-02-08T18:02:35.314Z,87.13
2018-02-08T18:05:03.197Z,87.34
2018-02-08T18:07:30.786Z,86.21
2018-02-08T18:09:58.356Z,85.51
2018-02-08T18:12:26.021Z,85.22
2018-02-08T18:14:53.653Z,86.21
2018-02-08T18:17:21.220Z,86.87
2018-02-08T18:19:48.856Z,86.50
2018-02-08T18:22:16.626Z,86.82
2018-02-08T18:24:44.295Z,87.30
2018-02-08T18:27:11.927Z,87.58
2018-02-08T18:29:39.546Z,87.10
2018-02-08T18:32:07.270Z,87.15
2018-02-08T18:34:34.908Z,86.79
2018-02-08T18:37:02.539Z,87.08
2018-02-08T18:39:30.107Z,88.10
2018-02-08T18:41:57.777Z,88.36
2018-02-08T18:44:25.377Z,88.41
2018-02-08T18:46:52.978Z,88.62
2018-02-08T18:49:20.839Z,89.05
2018-02-08T18:51:48.487Z,88.96
2018-02-08T18:54:16.176Z,88.09
2018-02-08T18:56:43.831Z,88.66
2018-02-08T18:59:11.377Z,89.31
2018-02-08T19:01:38.959Z,89.35
2018-02-08T19:04:06.518Z,90.16
2018-02-08T19:06:34.373Z,90.23
2018-02-08T19:09:01.911Z,90.34
2018-02-08T19:11:29.460Z,90.75
2018-02-08T19:13:57.130Z,91.29
2018-02-08T19:16:25.514Z,91.31
2018-02-08T19:18:53.045Z,91.66
2018-02-08T19:21:20.635Z,91.29
2018-02-08T19:23:48.306Z,90.45
2018-02-08T19:26:15.846Z,89.22
2018-02-08T19:28:43.512Z,88.92
2018-02-08T19:31:11.107Z,88.97
2018-02-08T19:33:38.665Z,88.87
2018-02-08T19:36:06.210Z,89.77
2018-02-08T19:38:33.992Z,90.11
2018-02-08T19:41:02.166Z,89.58
2018-02-08T19:43:30.639Z,88.68
2018-02-08T19:45:58.379Z,88.46
2018-02-08T19:48:25.996Z,89.19
2018-02-08T19:50:53.686Z,89.33
2018-02-08T19:53:21.400Z,89.71
2018-02-08T19:55:50.051Z,89.88
2018-02-08T19:58:17.700Z,90.22
2018-02-08T20:00:45.440Z,90.72
2018-02-08T20:03:13.104Z,91.33
2018-02-08T20:05:40.760Z,91.38
2018-02-08T20:08:08.394Z,90.97
2018-02-08T20:10:35.958Z,91.19
2018-02-08T20:13:03.615Z,91.57
2018-02-08T20:15:40.680Z,91.29
2018-02-08T20:18:08.251Z,91.14
2018-02-08T20:20:35.821Z,91.05
2018-02-08T20:23:03.487Z,90.98
2018-02-08T20:25:36.554Z,91.30
2018-02-08T20:28:04.134Z,91.70
2018-02-08T20:30:31.768Z,92.11
2018-02-08T20:32:59.440Z,92.81
2018-02-08T20:35:27.010Z,93.02
2018-02-08T20:37:54.725Z,93.07
2018-02-08T20:40:22.300Z,92.78
2018-02-08T20:42:55.649Z,92.35
2018-02-08T20:45:23.182Z,92.42
2018-02-08T20:47:50.756Z,92.36
2018-02-08T20:50:18.404Z,92.68
2018-02-08T20:52:46.130Z,93.11
2018-02-08T20:55:13.789Z,92.93
2018-02-08T20:57:41.415Z,92.44
2018-02-08T21:00:09.100Z,92.41
2018-02-08T21:02:36.656Z,92.73
2018-02-08T21:05:04.431Z,92.83
2018-02-08T21:07:32.255Z,92.41
2018-02-08T21:09:59.792Z,91.87
2018-02-08T21:12:27.355Z,91.42
2018-02-08T21:14:54.912Z,91.24
2018-02-08T21:17:22.551Z,91.30
2018-02-08T21:19:50.426Z,91.61
2018-02-08T21:22:17.990Z,91.53
2018-02-08T21:24:45.626Z,91.74
2018-02-08T21:27:13.213Z,91.53
2018-02-08T21:29:40.920Z,90.40
2018-02-08T21:32:08.465Z,90.48
2018-02-08T21:34:36.192Z,89.67
2018-02-08T21:37:03.867Z,91.22
2018-02-08T21:39:31.711Z,91.54
2018-02-08T21:41:59.270Z,92.21
2018-02-08T21:44:26.882Z,91.64
2018-02-08T21:46:54.520Z,91.49
2018-02-08T21:49:22.130Z,90.22
2018-02-08T21:51:49.887Z,90.95
2018-02-08T21:54:17.556Z,91.52
2018-02-08T21:56:45.189Z,91.05
2018-02-08T21:59:12.815Z,91.08
2018-02-08T22:01:40.394Z,89.88
2018-02-08T22:04:07.945Z,89.25
2018-02-08T22:06:35.487Z,89.07
2018-02-08T22:09:03.030Z,89.29
2018-02-08T22:11:30.666Z,89.19
2018-02-08T22:13:58.211Z,89.40
2018-02-08T22:16:25.781Z,88.91
2018-02-08T22:18:53.328Z,89.95
2018-02-08T22:21:20.939Z,89.93
2018-02-08T22:23:48.487Z,89.17
2018-02-08T22:26:16.026Z,89.47
2018-02-08T22:28:43.667Z,89.28
2018-02-08T22:31:11.240Z,89.81
2018-02-08T22:33:38.836Z,90.06
2018-02-08T22:36:06.375Z,89.92
2018-02-08T22:38:34.366Z,90.64
2018-02-08T22:41:01.975Z,90.78
2018-02-08T22:43:29.510Z,90.79
2018-02-08T22:45:57.066Z,90.44
2018-02-08T22:48:24.780Z,90.54
2018-02-08T22:50:52.495Z,90.70
2018-02-08T22:53:20.037Z,90.06
2018-02-08T22:55:48.518Z,89.57
2018-02-08T22:58:16.143Z,89.88
2018-02-08T23:00:43.764Z,89.60
2018-02-08T23:03:11.315Z,89.90
2018-02-08T23:05:38.901Z,90.02
2018-02-08T23:08:06.649Z,89.61
2018-02-08T23:10:34.202Z,89.62
2018-02-08T23:13:01.737Z,89.75
2018-02-08T23:15:29.396Z,90.72
2018-02-08T23:17:57.012Z,90.68
2018-02-08T23:20:24.637Z,90.30
2018-02-08T23:22:52.292Z,90.11
2018-02-08T23:25:19.825Z,91.16
2018-02-08T23:27:47.516Z,90.92
2018-02-08T23:30:15.040Z,90.23
2018-02-08T23:32:42.654Z,89.68
2018-02-08T23:35:10.191Z,89.46
2018-02-08T23:37:37.938Z,90.00
2018-02-08T23:40:05.476Z,90.65
2018-02-08T23:42:33.050Z,90.40
2018-02-08T23:45:00.694Z,91.19
2018-02-08T23:47:28.262Z,91.41
2018-02-08T23:49:55.795Z,90.88
2018-02-08T23:52:23.340Z,90.38
2018-02-08T23:54:50.887Z,89.87
2018-02-08T23:57:18.425Z,89.32
2018-02-08T23:59:46.031Z,89.26
